createdAt,value
2023-01-26T00:02:21.386Z,31.59
2023-01-26T00:04:49.643Z,31.55
2023-01-26T00:07:17.923Z,30.97
2023-01-26T00:09:46.569Z,31.23
2023-01-26T00:12:15.273Z,31.25
2023-01-26T00:14:52.504Z,30.87
2023-01-26T00:17:31.297Z,30.97
2023-01-26T00:20:00.153Z,31.06
2023-01-26T00:22:29.003Z,31.34
2023-01-26T00:24:57.382Z,31.66
2023-01-26T00:27:25.777Z,31.41
2023-01-26T00:29:54.222Z,31.60
2023-01-26T00:32:22.563Z,31.68
2023-01-26T00:34:50.932Z,31.66
2023-01-26T00:37:19.348Z,31.71
2023-01-26T00:39:47.628Z,31.36
2023-01-26T00:42:16.721Z,31.46
2023-01-26T00:44:45.244Z,31.31
2023-01-26T00:47:15.140Z,31.20
2023-01-26T00:49:43.473Z,31.63
2023-01-26T00:52:13.194Z,31.89
2023-01-26T00:54:41.519Z,31.37
2023-01-26T00:57:10.161Z,31.48
2023-01-26T00:59:38.574Z,31.61
2023-01-26T01:02:06.965Z,32.03
2023-01-26T01:04:35.351Z,31.94
2023-01-26T01:07:03.710Z,32.29
2023-01-26T01:09:32.032Z,32.37
2023-01-26T01:12:00.538Z,32.53
2023-01-26T01:14:28.907Z,32.33
2023-01-26T01:16:57.514Z,32.76
2023-01-26T01:19:25.919Z,32.72
2023-01-26T01:21:54.242Z,32.72
2023-01-26T01:24:22.694Z,33.03
2023-01-26T01:26:51.123Z,32.99
2023-01-26T01:29:19.484Z,33.17
2023-01-26T01:31:47.899Z,33.20
2023-01-26T01:34:16.249Z,33.29
2023-01-26T01:36:44.581Z,33.54
2023-01-26T01:39:13.617Z,33.83
2023-01-26T01:41:41.997Z,33.71
2023-01-26T01:44:24.314Z,33.83
2023-01-26T01:47:00.507Z,33.88
2023-01-26T01:49:35.573Z,34.03
2023-01-26T01:52:12.191Z,34.05
2023-01-26T01:54:49.791Z,34.13
2023-01-26T01:57:28.636Z,34.38
2023-01-26T02:00:11.405Z,34.62
2023-01-26T02:02:40.713Z,34.75
2023-01-26T02:05:25.789Z,34.89
2023-01-26T02:07:55.503Z,34.91
2023-01-26T02:10:24.781Z,35.32
2023-01-26T02:13:05.949Z,35.34
2023-01-26T02:15:34.267Z,35.83
2023-01-26T02:18:05.750Z,36.06
2023-01-26T02:20:51.504Z,36.37
2023-01-26T02:23:27.153Z,36.64
2023-01-26T02:25:55.734Z,36.95
2023-01-26T02:28:27.927Z,37.07
2023-01-26T02:30:57.659Z,36.99
2023-01-26T02:33:28.478Z,37.21
2023-01-26T02:35:56.834Z,37.53
2023-01-26T02:38:29.853Z,37.66
2023-01-26T02:41:07.909Z,37.71
2023-01-26T02:43:36.883Z,37.69
2023-01-26T02:46:05.395Z,37.92
2023-01-26T02:48:52.711Z,37.93
2023-01-26T02:51:21.044Z,37.87
2023-01-26T02:53:49.329Z,38.09
2023-01-26T02:56:17.589Z,38.02
2023-01-26T02:58:46.147Z,38.36
2023-01-26T03:01:14.502Z,38.27
2023-01-26T03:03:42.817Z,38.14
2023-01-26T03:06:16.199Z,38.17
2023-01-26T03:08:44.660Z,38.26
2023-01-26T03:11:12.937Z,38.28
2023-01-26T03:13:41.199Z,38.36
2023-01-26T03:16:12.343Z,38.65
2023-01-26T03:18:59.296Z,38.47
2023-01-26T03:21:45.954Z,38.71
2023-01-26T03:24:33.426Z,38.73
2023-01-26T03:27:20.559Z,38.60
2023-01-26T03:29:49.103Z,38.41
2023-01-26T03:32:17.403Z,38.27
2023-01-26T03:34:46.701Z,38.05
2023-01-26T03:37:14.963Z,37.94
2023-01-26T03:40:01.757Z,37.88
2023-01-26T03:42:48.426Z,37.73
2023-01-26T03:45:34.978Z,37.42
2023-01-26T03:48:26.579Z,37.52
2023-01-26T03:51:15.126Z,37.17
2023-01-26T03:54:04.625Z,37.03
2023-01-26T03:56:34.077Z,36.85
2023-01-26T03:59:11.615Z,36.78
2023-01-26T04:01:42.716Z,37.00
2023-01-26T04:04:30.766Z,37.23
2023-01-26T04:07:17.083Z,37.28
2023-01-26T04:09:45.870Z,37.27
2023-01-26T04:12:14.986Z,37.26
2023-01-26T04:15:01.480Z,37.27
2023-01-26T04:17:49.234Z,37.46
2023-01-26T04:20:35.863Z,37.54
2023-01-26T04:23:04.178Z,37.83
2023-01-26T04:25:32.513Z,37.84
2023-01-26T04:28:00.789Z,37.88
2023-01-26T04:30:29.157Z,38.07
2023-01-26T04:32:57.463Z,37.86
2023-01-26T04:35:25.748Z,37.68
2023-01-26T04:37:54.024Z,37.81
2023-01-26T04:40:22.289Z,37.75
2023-01-26T04:42:50.554Z,37.96
2023-01-26T04:45:18.934Z,38.20
2023-01-26T04:47:47.356Z,37.95
2023-01-26T04:50:15.762Z,38.02
2023-01-26T04:52:44.400Z,38.14
2023-01-26T04:55:12.766Z,37.89
2023-01-26T04:57:41.151Z,37.78
2023-01-26T05:00:11.523Z,37.85
2023-01-26T05:02:41.254Z,38.23
2023-01-26T05:05:10.074Z,38.06
2023-01-26T05:07:38.436Z,38.13
2023-01-26T05:10:07.193Z,37.96
2023-01-26T05:12:35.561Z,38.03
2023-01-26T05:15:03.934Z,37.98
2023-01-26T05:17:32.209Z,37.95
2023-01-26T05:20:00.530Z,37.65
2023-01-26T05:22:28.821Z,37.67
2023-01-26T05:24:57.125Z,37.55
2023-01-26T05:27:25.478Z,37.28
2023-01-26T05:29:55.935Z,37.57
2023-01-26T05:32:24.234Z,37.33
2023-01-26T05:34:52.513Z,37.17
2023-01-26T05:37:21.384Z,37.08
2023-01-26T05:39:49.681Z,37.18
2023-01-26T05:42:18.439Z,36.95
2023-01-26T05:44:46.887Z,36.94
2023-01-26T05:47:15.165Z,36.62
2023-01-26T05:49:46.807Z,36.23
2023-01-26T05:52:18.268Z,36.34
2023-01-26T05:54:47.306Z,36.22
2023-01-26T05:57:17.842Z,35.94
2023-01-26T05:59:46.345Z,35.85
2023-01-26T06:02:14.945Z,35.83
2023-01-26T06:04:43.265Z,35.96
2023-01-26T06:07:11.637Z,35.71
2023-01-26T06:09:40.048Z,35.64
2023-01-26T06:12:15.369Z,35.62
2023-01-26T06:14:45.660Z,35.48
2023-01-26T06:17:17.568Z,35.46
2023-01-26T06:19:46.383Z,35.55
2023-01-26T06:22:15.533Z,35.51
2023-01-26T06:24:43.850Z,35.43
2023-01-26T06:27:17.316Z,35.81
2023-01-26T06:29:46.566Z,35.97
2023-01-26T06:32:15.953Z,35.74
2023-01-26T06:34:44.628Z,36.07
2023-01-26T06:37:14.880Z,36.33
2023-01-26T06:39:44.603Z,36.43
2023-01-26T06:42:13.896Z,36.54
2023-01-26T06:44:42.293Z,36.57
2023-01-26T06:47:11.115Z,36.78
2023-01-26T06:49:39.416Z,36.28
2023-01-26T06:52:32.377Z,36.26
2023-01-26T06:55:01.602Z,36.11
2023-01-26T06:57:29.987Z,35.90
2023-01-26T06:59:59.499Z,35.44
2023-01-26T07:02:28.007Z,34.25
2023-01-26T07:04:56.332Z,34.32
2023-01-26T07:07:24.613Z,33.82
2023-01-26T07:09:53.022Z,33.27
2023-01-26T07:12:21.433Z,33.04
2023-01-26T07:14:52.204Z,33.20
2023-01-26T07:17:20.447Z,32.84
2023-01-26T07:19:48.759Z,33.25
2023-01-26T07:22:17.039Z,33.49
2023-01-26T07:24:45.488Z,33.90
2023-01-26T07:27:13.743Z,34.37
2023-01-26T07:29:42.243Z,34.65
2023-01-26T07:32:10.504Z,34.69
2023-01-26T07:34:38.977Z,34.75
2023-01-26T07:37:07.287Z,35.14
2023-01-26T07:39:35.594Z,35.34
2023-01-26T07:42:03.878Z,35.72
2023-01-26T07:44:32.151Z,35.93
2023-01-26T07:47:00.429Z,36.08
2023-01-26T07:49:28.679Z,36.28
2023-01-26T07:51:56.937Z,36.56
2023-01-26T07:54:25.510Z,36.69
2023-01-26T07:56:55.401Z,37.17
2023-01-26T07:59:24.030Z,37.10
2023-01-26T08:01:53.004Z,37.14
2023-01-26T08:04:21.437Z,37.68
2023-01-26T08:06:52.980Z,37.53
2023-01-26T08:09:21.562Z,37.70
2023-01-26T08:11:49.934Z,38.13
2023-01-26T08:14:18.353Z,38.47
2023-01-26T08:16:47.222Z,38.83
2023-01-26T08:19:15.603Z,38.73
2023-01-26T08:21:44.063Z,38.93
2023-01-26T08:24:15.299Z,39.29
2023-01-26T08:26:43.614Z,39.06
2023-01-26T08:29:12.312Z,39.52
2023-01-26T08:31:40.671Z,39.12
2023-01-26T08:34:08.971Z,39.11
2023-01-26T08:36:37.253Z,39.21
2023-01-26T08:39:05.628Z,39.19
2023-01-26T08:41:34.453Z,39.00
2023-01-26T08:44:02.717Z,39.11
2023-01-26T08:46:30.993Z,38.33
2023-01-26T08:49:00.492Z,37.92
2023-01-26T08:51:28.972Z,38.02
2023-01-26T08:53:57.453Z,37.82
2023-01-26T08:56:25.741Z,37.83
2023-01-26T08:58:53.994Z,38.35
2023-01-26T09:01:22.327Z,38.46
2023-01-26T09:03:52.168Z,38.67
2023-01-26T09:06:21.028Z,39.00
2023-01-26T09:08:49.609Z,38.85
2023-01-26T09:11:18.004Z,38.92
2023-01-26T09:13:46.751Z,39.35
2023-01-26T09:16:20.798Z,39.25
2023-01-26T09:18:52.117Z,39.11
2023-01-26T09:21:21.189Z,39.43
2023-01-26T09:23:49.487Z,39.45
2023-01-26T09:26:17.801Z,39.66
2023-01-26T09:28:46.493Z,40.08
2023-01-26T09:31:14.870Z,39.92
2023-01-26T09:33:44.911Z,40.25
2023-01-26T09:36:14.028Z,40.46
2023-01-26T09:38:42.416Z,40.31
2023-01-26T09:41:34.488Z,40.75
2023-01-26T09:44:10.406Z,40.81
2023-01-26T09:47:05.510Z,41.27
2023-01-26T09:49:56.507Z,41.27
2023-01-26T09:52:34.868Z,41.60
2023-01-26T09:55:07.796Z,41.65
2023-01-26T09:57:42.828Z,40.99
2023-01-26T10:00:22.523Z,41.27
2023-01-26T10:03:15.178Z,41.38
2023-01-26T10:05:48.936Z,41.63
2023-01-26T10:08:22.234Z,41.67
2023-01-26T10:10:55.446Z,41.90
2023-01-26T10:13:25.017Z,42.17
2023-01-26T10:16:02.871Z,42.28
2023-01-26T10:18:36.334Z,42.37
2023-01-26T10:21:08.620Z,42.52
2023-01-26T10:23:37.410Z,42.89
2023-01-26T10:26:16.201Z,42.81
2023-01-26T10:28:46.624Z,42.45
2023-01-26T10:31:23.504Z,42.63
2023-01-26T10:33:56.508Z,42.68
2023-01-26T10:36:25.635Z,42.78
2023-01-26T10:38:54.125Z,42.82
2023-01-26T10:41:28.331Z,43.28
2023-01-26T10:44:00.930Z,43.31
2023-01-26T10:46:38.948Z,43.54
2023-01-26T10:49:10.377Z,43.58
2023-01-26T10:51:41.069Z,43.88
2023-01-26T10:54:15.407Z,44.19
2023-01-26T10:56:50.225Z,44.32
2023-01-26T10:59:34.711Z,44.42
2023-01-26T11:02:24.313Z,44.48
2023-01-26T11:05:11.027Z,44.47
2023-01-26T11:07:42.144Z,44.43
2023-01-26T11:10:33.674Z,44.85
2023-01-26T11:13:18.292Z,44.84
2023-01-26T11:15:49.460Z,45.12
2023-01-26T11:18:23.676Z,45.00
2023-01-26T11:20:58.067Z,45.09
2023-01-26T11:24:03.326Z,44.84
2023-01-26T11:26:46.151Z,44.95
2023-01-26T11:29:35.511Z,45.35
2023-01-26T11:32:27.003Z,45.49
2023-01-26T11:35:07.203Z,45.53
2023-01-26T11:37:47.211Z,45.68
2023-01-26T11:40:30.514Z,45.73
2023-01-26T11:43:25.477Z,46.14
2023-01-26T11:46:18.413Z,46.16
2023-01-26T11:49:04.923Z,46.32
2023-01-26T11:51:54.939Z,46.53
2023-01-26T11:55:03.145Z,46.79
2023-01-26T11:57:53.804Z,46.94
2023-01-26T12:00:37.803Z,47.15
2023-01-26T12:03:13.249Z,47.01
2023-01-26T12:06:03.606Z,47.36
2023-01-26T12:08:42.983Z,47.64
2023-01-26T12:11:39.638Z,47.59
2023-01-26T12:14:43.288Z,47.78
2023-01-26T12:17:26.418Z,48.06
2023-01-26T12:20:27.989Z,47.94
2023-01-26T12:23:17.425Z,48.15
2023-01-26T12:25:55.622Z,48.63
2023-01-26T12:28:43.829Z,48.30
2023-01-26T12:31:24.471Z,48.74
2023-01-26T12:33:56.910Z,48.68
2023-01-26T12:36:47.223Z,48.94
2023-01-26T12:39:15.511Z,49.02
2023-01-26T12:42:14.594Z,49.50
2023-01-26T12:45:03.325Z,49.08
2023-01-26T12:47:46.114Z,49.55
2023-01-26T12:50:33.671Z,49.24
2023-01-26T12:53:39.729Z,49.44
2023-01-26T12:56:21.508Z,50.03
2023-01-26T12:58:53.002Z,49.45
2023-01-26T13:01:27.120Z,49.81
2023-01-26T13:04:07.875Z,49.68
2023-01-26T13:06:36.299Z,50.13
2023-01-26T13:09:22.007Z,50.10
2023-01-26T13:11:54.789Z,49.99
2023-01-26T13:14:25.884Z,50.50
2023-01-26T13:16:54.406Z,50.95
2023-01-26T13:19:53.709Z,50.76
2023-01-26T13:22:24.785Z,51.16
2023-01-26T13:25:00.226Z,50.93
2023-01-26T13:27:40.763Z,50.82
2023-01-26T13:30:27.661Z,51.39
2023-01-26T13:33:03.862Z,51.32
2023-01-26T13:35:33.018Z,51.73
2023-01-26T13:38:39.858Z,51.75
2023-01-26T13:41:18.626Z,51.52
2023-01-26T13:44:15.483Z,52.10
2023-01-26T13:47:01.173Z,51.74
2023-01-26T13:49:40.152Z,52.05
2023-01-26T13:52:23.655Z,52.53
2023-01-26T13:54:54.256Z,51.83
2023-01-26T13:57:32.528Z,52.15
2023-01-26T14:00:02.466Z,52.30
2023-01-26T14:02:35.707Z,52.74
2023-01-26T14:05:04.333Z,52.05
2023-01-26T14:07:44.993Z,52.98
2023-01-26T14:10:23.536Z,52.57
2023-01-26T14:12:59.689Z,52.61
2023-01-26T14:15:31.638Z,52.41
2023-01-26T14:18:02.616Z,52.65
2023-01-26T14:20:36.474Z,53.23
2023-01-26T14:23:16.304Z,52.87
2023-01-26T14:25:49.948Z,53.51
2023-01-26T14:28:22.024Z,52.97
2023-01-26T14:30:58.587Z,53.68
2023-01-26T14:33:27.020Z,53.45
2023-01-26T14:36:06.409Z,53.22
2023-01-26T14:38:44.069Z,53.69
2023-01-26T14:41:26.111Z,54.20
2023-01-26T14:43:58.739Z,54.15
2023-01-26T14:46:54.888Z,53.73
2023-01-26T14:49:56.357Z,53.65
2023-01-26T14:52:29.049Z,53.96
2023-01-26T14:55:00.789Z,54.05
2023-01-26T14:57:29.932Z,54.08
2023-01-26T15:00:03.309Z,55.01
2023-01-26T15:02:44.159Z,54.76
2023-01-26T15:05:23.288Z,54.21
2023-01-26T15:08:00.436Z,54.39
2023-01-26T15:10:41.827Z,54.80
2023-01-26T15:13:12.780Z,55.00
2023-01-26T15:15:49.758Z,54.78
2023-01-26T15:18:19.489Z,55.12
2023-01-26T15:21:07.809Z,55.15
2023-01-26T15:23:47.205Z,54.79
2023-01-26T15:26:18.479Z,55.73
2023-01-26T15:28:53.644Z,55.87
2023-01-26T15:31:26.469Z,55.55
2023-01-26T15:33:55.772Z,55.79
2023-01-26T15:36:47.023Z,55.68
2023-01-26T15:39:17.668Z,55.24
2023-01-26T15:42:00.203Z,55.38
2023-01-26T15:44:28.948Z,55.25
2023-01-26T15:46:58.689Z,55.50
2023-01-26T15:49:27.018Z,56.30
2023-01-26T15:51:55.308Z,56.07
2023-01-26T15:54:23.593Z,56.05
2023-01-26T15:56:51.896Z,55.72
2023-01-26T15:59:20.165Z,55.94
2023-01-26T16:01:48.601Z,55.47
2023-01-26T16:04:16.931Z,56.21
2023-01-26T16:06:45.837Z,56.41
2023-01-26T16:09:14.189Z,56.45
2023-01-26T16:11:48.519Z,56.28
2023-01-26T16:14:17.548Z,56.40
2023-01-26T16:16:46.357Z,56.34
2023-01-26T16:19:34.386Z,55.71
2023-01-26T16:22:03.156Z,55.51
2023-01-26T16:24:31.415Z,56.02
2023-01-26T16:26:59.868Z,56.08
2023-01-26T16:29:28.126Z,55.75
2023-01-26T16:31:56.510Z,55.28
2023-01-26T16:34:25.024Z,55.39
2023-01-26T16:36:53.388Z,55.44
2023-01-26T16:39:22.348Z,55.47
2023-01-26T16:41:50.927Z,55.38
2023-01-26T16:44:20.463Z,55.06
2023-01-26T16:46:48.828Z,54.79
2023-01-26T16:49:17.187Z,54.73
2023-01-26T16:51:45.988Z,54.92
2023-01-26T16:54:14.320Z,54.92
2023-01-26T16:56:42.691Z,54.38
2023-01-26T16:59:10.967Z,54.81
2023-01-26T17:01:40.731Z,54.50
2023-01-26T17:04:12.127Z,54.20
2023-01-26T17:06:40.393Z,54.42
2023-01-26T17:09:08.681Z,54.20
2023-01-26T17:11:36.951Z,54.16
2023-01-26T17:14:05.408Z,53.73
2023-01-26T17:16:33.979Z,53.71
2023-01-26T17:19:02.401Z,53.57
2023-01-26T17:21:30.662Z,53.45
2023-01-26T17:23:59.780Z,53.27
2023-01-26T17:26:28.166Z,52.98
2023-01-26T17:28:56.971Z,52.97
2023-01-26T17:31:26.162Z,52.50
2023-01-26T17:33:56.359Z,52.64
2023-01-26T17:36:25.124Z,52.18
2023-01-26T17:38:54.038Z,52.05
2023-01-26T17:41:22.597Z,52.16
2023-01-26T17:43:52.122Z,51.53
2023-01-26T17:46:22.071Z,51.91
2023-01-26T17:48:51.653Z,51.77
2023-01-26T17:51:21.883Z,51.57
2023-01-26T17:53:51.176Z,51.60
2023-01-26T17:56:21.212Z,51.34
2023-01-26T17:58:51.333Z,51.16
2023-01-26T18:01:21.061Z,51.21
2023-01-26T18:03:49.790Z,50.92
2023-01-26T18:06:18.522Z,50.67
2023-01-26T18:08:47.087Z,50.54
2023-01-26T18:11:17.000Z,50.56
2023-01-26T18:13:45.974Z,50.50
2023-01-26T18:16:17.852Z,50.33
2023-01-26T18:18:46.566Z,50.24
2023-01-26T18:21:19.308Z,50.01
2023-01-26T18:23:55.523Z,49.76
2023-01-26T18:26:26.440Z,49.83
2023-01-26T18:28:55.623Z,49.94
2023-01-26T18:31:32.538Z,49.26
2023-01-26T18:34:02.503Z,49.29
2023-01-26T18:36:31.247Z,49.72
2023-01-26T18:39:05.759Z,49.51
2023-01-26T18:41:36.076Z,49.32
2023-01-26T18:44:04.625Z,48.46
2023-01-26T18:46:32.975Z,48.67
2023-01-26T18:49:01.608Z,48.19
2023-01-26T18:51:35.480Z,48.23
2023-01-26T18:54:04.959Z,48.25
2023-01-26T18:56:33.419Z,48.44
2023-01-26T18:59:01.737Z,48.56
2023-01-26T19:01:30.090Z,47.85
2023-01-26T19:03:59.561Z,47.66
2023-01-26T19:06:29.694Z,47.80
2023-01-26T19:09:01.724Z,47.41
2023-01-26T19:11:32.556Z,46.93
2023-01-26T19:14:02.016Z,46.26
2023-01-26T19:16:30.936Z,46.57
2023-01-26T19:18:59.464Z,46.51
2023-01-26T19:21:28.673Z,45.87
2023-01-26T19:23:59.490Z,45.76
2023-01-26T19:26:30.469Z,45.94
2023-01-26T19:28:59.837Z,45.73
2023-01-26T19:31:29.270Z,45.77
2023-01-26T19:34:03.432Z,45.70
2023-01-26T19:36:33.566Z,45.88
2023-01-26T19:39:03.192Z,45.84
2023-01-26T19:41:31.486Z,45.22
2023-01-26T19:43:59.802Z,44.91
2023-01-26T19:46:28.358Z,44.80
2023-01-26T19:48:56.819Z,44.58
2023-01-26T19:51:27.329Z,44.62
2023-01-26T19:53:57.593Z,44.11
2023-01-26T19:56:31.133Z,44.13
2023-01-26T19:59:01.907Z,43.73
2023-01-26T20:01:31.502Z,43.71
2023-01-26T20:04:02.926Z,43.31
2023-01-26T20:06:34.614Z,43.53
2023-01-26T20:09:04.417Z,43.38
2023-01-26T20:11:32.964Z,43.25
2023-01-26T20:14:04.350Z,43.28
2023-01-26T20:16:35.008Z,42.44
2023-01-26T20:19:04.321Z,42.27
2023-01-26T20:21:33.013Z,42.40
2023-01-26T20:24:05.530Z,42.26
2023-01-26T20:26:34.821Z,42.03
2023-01-26T20:29:04.172Z,41.70
2023-01-26T20:31:33.996Z,41.52
2023-01-26T20:34:02.886Z,41.14
2023-01-26T20:36:32.506Z,39.83
2023-01-26T20:39:01.082Z,39.91
2023-01-26T20:41:31.645Z,40.06
2023-01-26T20:44:02.800Z,39.77
2023-01-26T20:46:39.783Z,39.95
2023-01-26T20:49:11.101Z,39.79
2023-01-26T20:51:43.238Z,39.66
2023-01-26T20:54:14.156Z,38.93
2023-01-26T20:56:42.585Z,39.48
2023-01-26T20:59:12.334Z,39.04
2023-01-26T21:01:40.670Z,39.13
2023-01-26T21:04:09.318Z,39.01
2023-01-26T21:06:38.397Z,38.72
2023-01-26T21:09:06.743Z,38.50
2023-01-26T21:11:36.263Z,38.69
2023-01-26T21:14:05.072Z,38.69
2023-01-26T21:16:34.230Z,38.68
2023-01-26T21:19:02.631Z,38.68
2023-01-26T21:21:30.933Z,38.43
2023-01-26T21:23:59.275Z,38.40
2023-01-26T21:26:28.884Z,38.25
2023-01-26T21:28:59.827Z,38.17
2023-01-26T21:31:31.354Z,37.79
2023-01-26T21:34:00.953Z,37.27
2023-01-26T21:36:32.118Z,37.77
2023-01-26T21:39:01.341Z,37.07
2023-01-26T21:41:50.303Z,36.58
2023-01-26T21:44:21.324Z,36.42
2023-01-26T21:46:52.492Z,36.45
2023-01-26T21:49:21.073Z,36.82
2023-01-26T21:52:07.849Z,36.17
2023-01-26T21:54:36.713Z,36.42
2023-01-26T21:57:26.811Z,35.26
2023-01-26T21:59:55.844Z,35.78
2023-01-26T22:02:24.710Z,35.81
2023-01-26T22:04:53.269Z,35.60
2023-01-26T22:07:21.643Z,35.60
2023-01-26T22:09:49.916Z,34.54
2023-01-26T22:12:18.217Z,34.64
2023-01-26T22:14:46.718Z,35.11
2023-01-26T22:17:15.007Z,34.30
2023-01-26T22:19:43.262Z,34.27
2023-01-26T22:22:11.544Z,33.77
2023-01-26T22:24:39.828Z,33.74
2023-01-26T22:27:09.148Z,33.70
2023-01-26T22:29:37.548Z,33.37
2023-01-26T22:32:06.104Z,33.41
2023-01-26T22:34:34.680Z,33.55
2023-01-26T22:37:02.992Z,33.63
2023-01-26T22:39:31.587Z,33.21
2023-01-26T22:42:00.369Z,33.11
2023-01-26T22:44:28.657Z,33.23
2023-01-26T22:46:57.008Z,33.31
2023-01-26T22:49:25.261Z,32.84
2023-01-26T22:51:53.533Z,32.97
2023-01-26T22:54:21.882Z,32.46
2023-01-26T22:56:50.250Z,32.83
2023-01-26T22:59:18.784Z,32.96
2023-01-26T23:01:47.125Z,31.96
2023-01-26T23:04:15.442Z,32.41
2023-01-26T23:06:44.185Z,32.96
2023-01-26T23:09:12.526Z,32.77
2023-01-26T23:11:40.927Z,32.66
2023-01-26T23:14:09.329Z,32.93
2023-01-26T23:16:37.702Z,31.93
2023-01-26T23:19:06.045Z,32.41
2023-01-26T23:21:34.326Z,32.24
2023-01-26T23:24:02.687Z,32.67
2023-01-26T23:26:31.016Z,32.48
2023-01-26T23:28:59.333Z,32.93
2023-01-26T23:31:27.828Z,32.91
2023-01-26T23:33:56.167Z,32.97
2023-01-26T23:36:24.479Z,32.47
2023-01-26T23:38:53.535Z,32.93
2023-01-26T23:41:21.831Z,33.06
2023-01-26T23:43:50.104Z,33.06
2023-01-26T23:46:18.525Z,32.42
2023-01-26T23:48:46.908Z,32.73
2023-01-26T23:51:15.213Z,32.95
2023-01-26T23:53:43.624Z,33.07
2023-01-26T23:56:17.078Z,32.75
2023-01-26T23:58:46.604Z,33.36
